Time;durP1;ratioP1;P1;durP2;ratioP2;P2;SDS_P1;SDS_P2;PMS_P1;PMS_P2;Temp;Humidity;BMP_temperature;BMP_pressure;BME280_temperature;BME280_humidity;BME280_pressure;Samples;Min_cycle;Max_cycle;Signal;HPM_P1;HPM_P2
2022/08/01 00:00:11;;;;;;;6.03;5.73;;;;;;;24.88;54.81;99130.94;5071002;28;20726;-68
2022/08/01 00:02:38;;;;;;;6.03;5.73;;;;;;;24.91;54.32;99126.84;5071393;28;20254;-68
2022/08/01 00:05:06;;;;;;;5.93;5.63;;;;;;;24.82;54.74;99126.72;5070956;28;20191;-68
2022/08/01 00:07:33;;;;;;;5.53;5.33;;;;;;;24.77;54.96;99123.25;5070821;28;20697;-69
2022/08/01 00:09:59;;;;;;;6.57;6.20;;;;;;;24.67;55.32;99129.66;5070614;28;20256;-69
2022/08/01 00:12:26;;;;;;;6.97;6.57;;;;;;;24.72;55.33;99126.88;5071006;28;20203;-69
2022/08/01 00:14:53;;;;;;;6.77;6.47;;;;;;;24.65;55.66;99121.00;5070321;28;20667;-69
2022/08/01 00:17:21;;;;;;;6.40;6.10;;;;;;;24.67;55.26;99123.44;5070788;28;20252;-70
2022/08/01 00:19:48;;;;;;;6.00;5.77;;;;;;;24.50;55.89;99099.50;5070130;28;20223;-69
2022/08/01 00:22:14;;;;;;;6.30;5.73;;;;;;;24.37;56.47;99113.81;5070447;28;20824;-70
2022/08/01 00:24:41;;;;;;;6.47;6.17;;;;;;;24.30;56.63;99118.00;5070813;28;20202;-69
2022/08/01 00:27:08;;;;;;;6.23;5.93;;;;;;;24.34;56.39;99119.81;5070868;28;20200;-68
2022/08/01 00:29:34;;;;;;;7.03;6.43;;;;;;;24.25;56.79;99120.78;5070500;28;20199;-69
2022/08/01 00:32:01;;;;;;;6.40;6.13;;;;;;;24.22;56.56;99122.19;5071085;28;20202;-69
2022/08/01 00:34:29;;;;;;;6.37;6.00;;;;;;;24.20;56.86;99127.09;5070390;28;20567;-69
2022/08/01 00:36:56;;;;;;;6.37;6.07;;;;;;;24.26;56.60;99128.63;5070513;28;20199;-69
2022/08/01 00:39:23;;;;;;;6.60;6.30;;;;;;;24.21;56.84;99125.19;5070709;28;20198;-69
2022/08/01 00:41:49;;;;;;;5.97;5.77;;;;;;;24.23;56.39;99129.25;5072081;28;20218;-69
2022/08/01 00:44:16;;;;;;;5.83;5.63;;;;;;;24.20;56.01;99126.28;5074889;28;20193;-68
2022/08/01 00:46:43;;;;;;;6.13;5.73;;;;;;;24.07;56.58;99119.69;5074300;28;20248;-69
2022/08/01 00:49:10;;;;;;;6.23;5.83;;;;;;;24.07;56.71;99129.72;5074325;28;20547;-69
2022/08/01 00:51:39;;;;;;;6.63;6.30;;;;;;;24.12;56.65;99130.47;5074600;28;20260;-69
2022/08/01 00:54:06;;;;;;;7.10;6.70;;;;;;;24.13;56.39;99126.66;5074369;28;20198;-69
2022/08/01 00:56:32;;;;;;;6.10;5.90;;;;;;;23.92;56.77;99130.75;5075039;28;20193;-68
2022/08/01 00:58:59;;;;;;;6.43;6.10;;;;;;;23.85;56.85;99124.03;5074673;28;20234;-68
2022/08/01 01:01:26;;;;;;;6.13;5.77;;;;;;;23.77;57.28;99127.41;5074704;28;20220;-68
2022/08/01 01:03:53;;;;;;;6.77;6.30;;;;;;;23.79;57.21;99128.72;5074303;28;20272;-69
2022/08/01 01:06:28;;;;;;;6.70;6.40;;;;;;;23.74;57.11;99126.06;5074386;28;20222;-68
2022/08/01 01:09:12;;;;;;;6.10;5.60;;;;;;;23.70;57.29;99130.47;5075047;28;20189;-68
2022/08/01 01:11:49;;;;;;;5.93;5.73;;;;;;;23.67;57.30;99131.03;5074362;28;20206;-68
2022/08/01 01:14:28;;;;;;;6.27;5.93;;;;;;;23.67;57.37;99130.22;5074334;28;20184;-68
2022/08/01 01:16:56;;;;;;;5.97;5.57;;;;;;;23.57;57.49;99141.19;5074738;28;20194;-68
2022/08/01 01:19:29;;;;;;;6.03;5.73;;;;;;;23.53;57.73;99135.53;5074858;28;20197;-68
2022/08/01 01:22:18;;;;;;;5.90;5.70;;;;;;;23.46;57.95;99134.25;5075363;28;20209;-68
2022/08/01 01:25:03;;;;;;;5.87;5.43;;;;;;;23.48;57.87;99145.63;5074794;28;20654;-68
2022/08/01 01:27:40;;;;;;;6.53;6.13;;;;;;;23.54;58.20;99147.19;5074909;28;20564;-68
2022/08/01 01:30:09;;;;;;;6.47;5.90;;;;;;;23.53;57.93;99138.22;5074208;28;20190;-68
2022/08/01 01:32:39;;;;;;;6.07;5.70;;;;;;;23.52;58.41;99133.13;5074464;28;20197;-68
2022/08/01 01:35:10;;;;;;;6.50;6.10;;;;;;;23.70;57.58;99141.31;5074280;28;20193;-68
2022/08/01 01:37:39;;;;;;;6.30;5.90;;;;;;;23.64;57.63;99142.44;5074638;28;20251;-68
2022/08/01 01:40:10;;;;;;;6.63;6.23;;;;;;;23.67;57.78;99141.06;5074902;28;20195;-68
2022/08/01 01:42:38;;;;;;;6.20;5.80;;;;;;;23.65;58.01;99141.34;5074411;28;20640;-68
2022/08/01 01:45:08;;;;;;;6.27;5.97;;;;;;;23.64;58.12;99141.66;5074588;28;20204;-68
2022/08/01 01:47:37;;;;;;;6.20;5.70;;;;;;;23.62;58.10;99144.66;5074073;28;20202;-68
2022/08/01 01:50:06;;;;;;;6.33;6.00;;;;;;;23.64;58.14;99137.03;5074171;28;20746;-68
2022/08/01 01:52:34;;;;;;;5.90;5.40;;;;;;;23.68;58.02;99132.63;5073770;28;20189;-68
2022/08/01 01:55:06;;;;;;;6.00;5.70;;;;;;;23.65;57.81;99133.22;5073738;28;20197;-68
2022/08/01 01:57:36;;;;;;;6.37;5.97;;;;;;;23.71;58.06;99121.22;5073834;28;20224;-69
2022/08/01 02:00:05;;;;;;;6.50;6.00;;;;;;;23.66;57.98;99140.28;5073806;28;20187;-68
2022/08/01 02:02:36;;;;;;;5.60;5.30;;;;;;;23.56;58.13;99139.59;5074131;28;20615;-68
2022/08/01 02:05:05;;;;;;;6.03;5.73;;;;;;;23.53;57.91;99135.53;5074999;28;20604;-69
2022/08/01 02:07:33;;;;;;;5.83;5.43;;;;;;;23.47;58.89;99131.25;5073997;28;20715;-68
2022/08/01 02:10:01;;;;;;;5.87;5.57;;;;;;;23.37;58.30;99131.38;5073695;28;20677;-68
2022/08/01 02:12:30;;;;;;;6.37;5.87;;;;;;;23.27;58.62;99131.47;5073533;28;20726;-68
2022/08/01 02:14:58;;;;;;;5.90;5.60;;;;;;;23.35;57.99;99132.75;5073770;28;20246;-67
2022/08/01 02:17:26;;;;;;;5.90;5.50;;;;;;;23.19;58.21;99131.28;5074013;28;20198;-68
2022/08/01 02:19:55;;;;;;;6.37;5.87;;;;;;;23.18;58.51;99133.16;5073986;28;20192;-68
2022/08/01 02:22:28;;;;;;;5.63;5.40;;;;;;;23.25;58.77;99133.69;5073526;28;20250;-68
2022/08/01 02:25:00;;;;;;;8.17;5.73;;;;;;;23.33;57.93;99130.34;5073707;28;20238;-68
2022/08/01 02:27:31;;;;;;;5.93;5.43;;;;;;;23.32;58.18;99128.69;5074487;28;20188;-68
2022/08/01 02:30:00;;;;;;;4.83;4.63;;;;;;;23.41;57.61;99137.84;5072932;28;20197;-68
2022/08/01 02:32:32;;;;;;;5.00;4.80;;;;;;;23.36;57.50;99128.97;5073349;28;20206;-68
2022/08/01 02:35:03;;;;;;;5.57;5.10;;;;;;;23.12;58.43;99133.50;5073154;28;20277;-69
2022/08/01 02:37:34;;;;;;;5.37;5.07;;;;;;;23.02;58.51;99129.00;5073537;28;20267;-68
2022/08/01 02:40:01;;;;;;;5.67;5.27;;;;;;;23.12;58.51;99131.59;5073388;28;20655;-68
2022/08/01 02:42:31;;;;;;;5.40;5.10;;;;;;;23.00;58.71;99130.38;5073439;28;20223;-68
2022/08/01 02:44:58;;;;;;;5.07;4.83;;;;;;;23.01;58.43;99131.97;5073289;28;20188;-68
2022/08/01 02:47:29;;;;;;;5.23;4.83;;;;;;;22.93;58.92;99119.88;5072501;28;20279;-69
2022/08/01 02:49:57;;;;;;;4.87;4.67;;;;;;;22.86;58.72;99124.78;5071935;28;20197;-68
2022/08/01 02:52:27;;;;;;;5.53;5.13;;;;;;;22.93;58.70;99119.88;5073056;28;20717;-68
2022/08/01 02:54:57;;;;;;;5.60;5.17;;;;;;;22.92;58.11;99126.38;5072673;28;20663;-68
2022/08/01 02:57:25;;;;;;;4.90;4.60;;;;;;;22.95;58.15;99127.72;5073043;28;20237;-68
2022/08/01 02:59:54;;;;;;;5.43;5.13;;;;;;;22.94;58.45;99121.47;5073220;28;20245;-68
2022/08/01 03:02:23;;;;;;;5.80;5.43;;;;;;;22.90;58.07;99125.03;5072594;28;20217;-68
2022/08/01 03:04:53;;;;;;;5.40;5.00;;;;;;;22.80;58.32;99125.94;5072665;28;20198;-68
2022/08/01 03:07:23;;;;;;;4.87;4.67;;;;;;;22.69;58.53;99126.28;5072657;28;20197;-68
2022/08/01 03:09:53;;;;;;;5.00;4.80;;;;;;;22.65;58.36;99128.75;5072828;28;20194;-69
2022/08/01 03:12:24;;;;;;;5.40;4.87;;;;;;;22.63;58.48;99130.16;5072581;28;20196;-68
2022/08/01 03:14:54;;;;;;;4.77;4.57;;;;;;;22.58;58.36;99120.16;5072486;28;20188;-68
2022/08/01 03:17:23;;;;;;;4.73;4.53;;;;;;;22.54;58.29;99121.00;5072850;28;20576;-68
2022/08/01 03:19:52;;;;;;;4.47;4.13;;;;;;;22.60;58.11;99115.28;5072593;28;20250;-68
2022/08/01 03:22:19;;;;;;;4.43;4.10;;;;;;;22.58;57.82;99122.06;5073035;28;20650;-68
2022/08/01 03:24:50;;;;;;;4.30;3.90;;;;;;;22.67;57.23;99118.44;5072069;28;20250;-68
2022/08/01 03:27:19;;;;;;;7.43;4.00;;;;;;;22.65;57.20;99123.34;5072524;28;20184;-68
2022/08/01 03:29:47;;;;;;;4.53;4.13;;;;;;;22.76;56.81;99122.19;5072315;28;20255;-68
2022/08/01 03:32:15;;;;;;;4.53;4.33;;;;;;;22.76;56.73;99119.47;5071967;28;20204;-68
2022/08/01 03:34:42;;;;;;;4.63;4.33;;;;;;;22.78;56.46;99122.69;5072156;28;20188;-68
2022/08/01 03:37:13;;;;;;;3.93;3.80;;;;;;;22.89;55.68;99118.81;5071599;28;20226;-68
2022/08/01 03:39:48;;;;;;;3.80;3.50;;;;;;;22.81;55.89;99116.72;5072294;28;20192;-68
2022/08/01 03:42:19;;;;;;;4.47;4.07;;;;;;;22.72;56.29;99118.44;5071827;28;20212;-69
2022/08/01 03:44:53;;;;;;;4.33;4.03;;;;;;;22.76;55.88;99113.25;5071998;28;20242;-68
2022/08/01 03:47:23;;;;;;;3.93;3.73;;;;;;;22.72;56.05;99112.19;5072124;28;20268;-69
2022/08/01 03:49:52;;;;;;;5.80;3.43;;;;;;;22.77;55.88;99114.84;5071534;28;20200;-69
2022/08/01 03:52:20;;;;;;;3.83;3.63;;;;;;;22.79;55.61;99116.19;5071590;28;20675;-69
2022/08/01 03:54:53;;;;;;;4.40;4.10;;;;;;;22.93;55.07;99119.03;5071754;28;20250;-68
2022/08/01 03:57:22;;;;;;;4.20;3.83;;;;;;;22.91;55.05;99124.75;5071657;28;20285;-68
2022/08/01 03:59:50;;;;;;;4.10;3.70;;;;;;;23.05;54.65;99117.59;5072250;28;20191;-68
2022/08/01 04:02:18;;;;;;;4.07;3.77;;;;;;;23.22;54.13;99117.97;5072005;28;20384;-68
2022/08/01 04:04:46;;;;;;;4.20;3.80;;;;;;;23.50;52.92;99119.84;5071474;28;20627;-68
2022/08/01 04:07:23;;;;;;;4.17;3.53;;;;;;;24.24;50.24;99124.59;5071833;28;20624;-68
2022/08/01 04:09:50;;;;;;;3.90;3.70;;;;;;;25.22;48.21;99127.09;5071086;28;20205;-68
2022/08/01 04:12:17;;;;;;;6.07;3.97;;;;;;;26.15;46.03;99133.69;5071800;28;20193;-68
2022/08/01 04:14:46;;;;;;;4.13;3.50;;;;;;;26.90;43.64;99142.84;5071477;28;20667;-69
2022/08/01 04:17:12;;;;;;;3.80;3.60;;;;;;;27.83;41.47;99147.19;5070544;28;20734;-69
2022/08/01 04:19:39;;;;;;;3.10;2.90;;;;;;;28.55;39.51;99148.31;5071387;28;20195;-68
2022/08/01 04:22:07;;;;;;;3.70;3.40;;;;;;;29.32;38.09;99146.31;5071457;28;20251;-68
2022/08/01 04:24:37;;;;;;;3.10;2.90;;;;;;;30.05;36.78;99151.31;5071633;28;20624;-68
2022/08/01 04:27:09;;;;;;;4.80;3.73;;;;;;;30.68;35.42;99155.72;5071456;28;20195;-69
2022/08/01 04:29:38;;;;;;;3.17;3.07;;;;;;;30.98;34.18;99154.50;5072094;28;20644;-69
2022/08/01 04:32:08;;;;;;;3.83;2.70;;;;;;;31.39;33.47;99149.72;5070751;28;20199;-69
2022/08/01 04:34:35;;;;;;;2.90;2.80;;;;;;;31.83;32.74;99154.38;5071084;28;20192;-68
2022/08/01 04:37:04;;;;;;;3.00;2.90;;;;;;;32.21;32.08;99159.53;5071468;28;20191;-68
2022/08/01 04:39:36;;;;;;;2.90;2.73;;;;;;;32.64;31.90;99154.97;5070709;28;20680;-68
2022/08/01 04:42:05;;;;;;;3.27;3.07;;;;;;;33.00;30.57;99168.59;5070944;28;20212;-67
2022/08/01 04:44:33;;;;;;;5.97;3.20;;;;;;;32.50;31.10;99157.31;5071036;28;20622;-67
2022/08/01 04:47:02;;;;;;;3.17;2.87;;;;;;;32.50;31.09;99162.81;5070928;28;20196;-68
2022/08/01 04:49:32;;;;;;;3.30;3.10;;;;;;;32.61;30.54;99154.84;5071327;28;20196;-68
2022/08/01 04:51:59;;;;;;;3.50;3.20;;;;;;;32.58;30.44;99156.34;5071122;28;20204;-68
2022/08/01 04:54:27;;;;;;;3.63;3.30;;;;;;;32.62;30.27;99148.22;5070946;28;20249;-68
2022/08/01 04:56:55;;;;;;;5.90;3.40;;;;;;;32.43;30.12;99153.53;5071024;28;20195;-68
2022/08/01 04:59:40;;;;;;;3.67;2.90;;;;;;;32.68;29.50;99155.88;5071270;28;20631;-68
2022/08/01 05:02:08;;;;;;;5.93;3.07;;;;;;;32.43;29.83;99157.09;5070791;28;20249;-68
2022/08/01 05:04:36;;;;;;;5.73;2.67;;;;;;;32.25;30.08;99158.47;5070812;28;20196;-68
2022/08/01 05:07:04;;;;;;;3.07;2.60;;;;;;;32.33;29.61;99160.31;5070282;28;20196;-68
2022/08/01 05:09:31;;;;;;;2.87;2.70;;;;;;;32.46;29.75;99156.41;5070130;28;20236;-67
2022/08/01 05:11:59;;;;;;;3.83;2.80;;;;;;;32.42;29.71;99150.00;5070514;28;20238;-69
2022/08/01 05:14:26;;;;;;;3.40;3.20;;;;;;;32.17;29.95;99158.63;5070375;28;20239;-68
2022/08/01 05:16:53;;;;;;;4.90;3.20;;;;;;;32.18;30.02;99155.50;5070552;28;20283;-67
2022/08/01 05:19:20;;;;;;;5.67;2.60;;;;;;;32.07;29.76;99159.88;5070882;28;20192;-68
2022/08/01 05:21:48;;;;;;;3.60;3.30;;;;;;;32.23;29.66;99154.47;5070158;28;20707;-67
2022/08/01 05:24:15;;;;;;;2.50;2.40;;;;;;;32.56;29.75;99152.38;5070415;28;20238;-68
2022/08/01 05:26:41;;;;;;;3.97;3.03;;;;;;;32.13;30.00;99150.25;5071164;28;20269;-69
2022/08/01 05:29:08;;;;;;;3.40;3.10;;;;;;;32.70;29.62;99155.50;5071872;28;20195;-68
2022/08/01 05:31:35;;;;;;;6.17;3.40;;;;;;;32.99;29.43;99153.25;5072393;28;20616;-68
2022/08/01 05:34:02;;;;;;;3.33;3.00;;;;;;;33.05;29.12;99146.34;5069241;28;20741;-68
2022/08/01 05:36:29;;;;;;;4.67;3.03;;;;;;;33.23;28.66;99152.31;5064417;28;20622;-68
2022/08/01 05:38:57;;;;;;;8.47;3.70;;;;;;;33.05;29.24;99151.88;5065556;28;20689;-68
2022/08/01 05:41:24;;;;;;;4.23;3.10;;;;;;;33.41;28.11;99155.56;5063809;28;20196;-68
2022/08/01 05:43:50;;;;;;;5.63;3.00;;;;;;;33.33;27.71;99151.03;5073234;28;20250;-68
2022/08/01 05:46:17;;;;;;;3.00;2.80;;;;;;;33.79;27.62;99159.31;5073410;28;20257;-68
2022/08/01 05:48:44;;;;;;;3.40;3.10;;;;;;;34.00;26.85;99157.09;5073224;28;20200;-67
2022/08/01 05:51:11;;;;;;;5.27;2.27;;;;;;;34.00;26.05;99153.56;5073750;28;20192;-67
2022/08/01 05:53:37;;;;;;;10.20;2.78;;;;;;;34.24;26.84;99150.53;5073498;28;20192;-67
2022/08/01 05:56:06;;;;;;;3.35;2.78;;;;;;;34.41;25.33;99158.47;5073247;28;20196;-68
2022/08/01 05:58:32;;;;;;;14.37;2.97;;;;;;;34.05;25.43;99156.81;5073471;28;20293;-67
2022/08/01 06:00:59;;;;;;;3.37;2.30;;;;;;;33.45;25.67;99140.75;5073450;28;20253;-67
2022/08/01 06:03:26;;;;;;;2.57;1.80;;;;;;;33.73;25.23;99137.91;5070135;28;20220;-67
2022/08/01 06:05:53;;;;;;;3.67;1.90;;;;;;;33.93;25.05;99148.69;5055107;28;20270;-69
2022/08/01 06:08:20;;;;;;;2.00;1.90;;;;;;;33.78;24.42;99154.97;5061407;28;20211;-67
2022/08/01 06:10:46;;;;;;;9.40;3.00;;;;;;;34.01;24.46;99152.41;5058217;28;20246;-67
2022/08/01 06:13:14;;;;;;;2.17;2.07;;;;;;;34.04;24.40;99146.94;5072643;28;20207;-66
2022/08/01 06:15:41;;;;;;;2.63;1.83;;;;;;;33.57;24.30;99145.38;5062163;28;20286;-67
2022/08/01 06:18:08;;;;;;;3.75;1.85;;;;;;;33.24;25.73;99140.94;5055062;28;20188;-69
2022/08/01 06:20:35;;;;;;;9.20;2.03;;;;;;;32.82;24.91;99137.06;5060345;28;20192;-68
2022/08/01 06:23:01;;;;;;;1.97;1.87;;;;;;;33.04;25.05;99143.94;5073197;28;20563;-68
2022/08/01 06:25:28;;;;;;;4.50;1.90;;;;;;;32.93;24.91;99140.91;5071922;28;20200;-71
2022/08/01 06:27:55;;;;;;;3.40;1.93;;;;;;;33.06;24.70;99134.19;5071606;28;20799;-71
2022/08/01 06:30:23;;;;;;;1.97;1.70;;;;;;;32.84;24.69;99134.75;5071472;28;20261;-71
2022/08/01 06:32:50;;;;;;;4.83;1.67;;;;;;;32.84;25.28;99134.75;5070035;28;20211;-71
2022/08/01 06:35:18;;;;;;;13.40;2.57;;;;;;;32.01;25.03;99125.50;5071822;28;20192;-71
2022/08/01 06:37:46;;;;;;;3.17;1.80;;;;;;;32.04;26.05;99121.28;5070064;28;20192;-71
2022/08/01 06:40:13;;;;;;;7.63;2.07;;;;;;;31.61;26.23;99132.81;5055383;28;20188;-71
2022/08/01 06:42:40;;;;;;;2.53;1.77;;;;;;;31.70;25.73;99121.72;5070637;28;20296;-72
2022/08/01 06:45:09;;;;;;;3.53;1.73;;;;;;;31.56;26.63;99127.56;5072056;28;20250;-70
2022/08/01 06:47:37;;;;;;;1.93;1.67;;;;;;;31.28;26.02;99123.84;5070279;28;20200;-71
2022/08/01 06:50:05;;;;;;;3.83;2.47;;;;;;;31.21;27.01;99129.09;5071051;28;20253;-74
2022/08/01 06:52:32;;;;;;;2.83;2.10;;;;;;;31.20;26.89;99123.94;5070391;28;20642;-73
2022/08/01 06:54:59;;;;;;;2.97;2.03;;;;;;;31.48;26.13;99122.97;5069703;28;20663;-71
2022/08/01 06:57:26;;;;;;;3.93;2.00;;;;;;;31.77;26.51;99116.50;5069463;28;20637;-68
2022/08/01 06:59:52;;;;;;;19.10;2.70;;;;;;;32.05;25.76;99118.19;5068868;28;20196;-73
2022/08/01 07:02:19;;;;;;;4.93;2.50;;;;;;;32.39;25.90;99105.88;5068472;28;20216;-70
2022/08/01 07:04:48;;;;;;;2.53;1.80;;;;;;;32.04;25.53;99105.59;5069352;28;20265;-72
2022/08/01 07:07:14;;;;;;;4.93;1.77;;;;;;;31.80;25.90;99102.88;5068599;28;20203;-73
2022/08/01 07:09:42;;;;;;;5.20;1.90;;;;;;;31.63;26.80;99113.25;5070465;28;20188;-68
2022/08/01 07:12:10;;;;;;;5.33;1.83;;;;;;;31.99;26.05;99103.09;5057599;28;20200;-68
2022/08/01 07:14:36;;;;;;;3.60;1.90;;;;;;;32.29;25.63;99106.34;5068902;28;20184;-68
2022/08/01 07:17:03;;;;;;;2.93;1.70;;;;;;;32.36;25.28;99101.06;5070585;28;20211;-68
2022/08/01 07:19:30;;;;;;;2.60;1.63;;;;;;;32.12;26.43;99099.16;5070862;28;20204;-68
2022/08/01 07:21:58;;;;;;;8.83;2.17;;;;;;;32.41;25.60;99104.38;5071415;28;20249;-70
2022/08/01 07:24:24;;;;;;;5.13;1.70;;;;;;;32.07;26.02;99104.91;5071068;28;20187;-70
2022/08/01 07:26:53;;;;;;;1.80;1.60;;;;;;;32.36;27.13;99101.88;5070291;28;20655;-67
2022/08/01 07:29:20;;;;;;;4.10;2.03;;;;;;;32.48;25.59;99109.28;5070669;28;20203;-67
2022/08/01 07:31:47;;;;;;;7.13;2.03;;;;;;;32.60;25.94;99107.31;5070378;28;20733;-68
2022/08/01 07:34:14;;;;;;;4.23;1.90;;;;;;;32.88;25.62;99108.13;5070833;28;20621;-67
2022/08/01 07:36:40;;;;;;;2.13;1.70;;;;;;;33.06;25.29;99103.91;5070234;28;20192;-68
2022/08/01 07:39:08;;;;;;;4.27;1.50;;;;;;;33.24;24.87;99091.38;5069775;28;20569;-69
2022/08/01 07:41:35;;;;;;;3.13;1.67;;;;;;;32.55;25.90;99087.50;5070084;28;20233;-67
2022/08/01 07:44:02;;;;;;;2.90;2.20;;;;;;;32.64;25.63;99075.19;5070629;28;20280;-67
2022/08/01 07:46:30;;;;;;;4.33;1.50;;;;;;;31.88;25.60;99076.41;5071301;28;20203;-67
2022/08/01 07:48:57;;;;;;;12.50;2.00;;;;;;;31.58;25.76;99072.28;5070911;28;20265;-72
2022/08/01 07:51:23;;;;;;;1.90;1.80;;;;;;;31.67;25.73;99068.28;5069553;28;20252;-68
2022/08/01 07:53:50;;;;;;;9.47;2.53;;;;;;;32.03;26.02;99081.19;5070775;28;20196;-70
2022/08/01 07:56:18;;;;;;;3.13;2.30;;;;;;;32.60;26.03;99079.00;5070699;28;20241;-70
2022/08/01 07:58:46;;;;;;;1.83;1.40;;;;;;;32.96;25.04;99082.38;5069864;28;20259;-67
2022/08/01 08:01:13;;;;;;;4.50;1.50;;;;;;;32.83;25.21;99072.59;5070500;28;20679;-67
2022/08/01 08:03:39;;;;;;;3.60;1.90;;;;;;;33.36;24.59;99071.28;5070847;28;20219;-68
2022/08/01 08:06:06;;;;;;;2.77;1.70;;;;;;;32.70;24.40;99064.72;5070994;28;20195;-69
2022/08/01 08:08:34;;;;;;;5.97;1.70;;;;;;;32.73;25.38;99078.59;5051424;28;20656;-68
2022/08/01 08:11:01;;;;;;;8.03;1.80;;;;;;;33.11;25.21;99073.34;5050902;28;20223;-69
2022/08/01 08:13:29;;;;;;;4.00;1.80;;;;;;;32.57;25.58;99052.97;5065043;28;20245;-69
2022/08/01 08:15:58;;;;;;;21.97;3.93;;;;;;;32.73;25.39;99059.34;5066386;28;20325;-70
2022/08/01 08:18:24;;;;;;;4.03;1.67;;;;;;;32.60;24.52;99068.78;5058325;28;20212;-67
2022/08/01 08:20:51;;;;;;;3.50;1.90;;;;;;;32.31;25.02;99049.91;5057625;28;20187;-68
2022/08/01 08:26:02;;;;;;;3.53;1.70;;;;;;;32.50;25.40;99047.28;5070451;28;20602;-68
2022/08/01 08:28:30;;;;;;;11.43;3.20;;;;;;;32.40;24.81;99053.28;5069091;28;20188;-68
2022/08/01 08:30:56;;;;;;;2.50;1.60;;;;;;;32.36;25.67;99063.38;5069434;28;20192;-66
2022/08/01 08:33:23;;;;;;;4.07;1.87;;;;;;;32.28;25.66;99050.56;5066266;28;20245;-65
2022/08/01 08:35:50;;;;;;;4.37;1.80;;;;;;;32.24;25.81;99044.16;5069790;28;20745;-65
2022/08/01 08:38:17;;;;;;;7.13;2.50;;;;;;;33.11;25.45;99045.81;5068392;28;20203;-67
2022/08/01 08:40:43;;;;;;;3.80;1.83;;;;;;;32.95;25.89;99053.25;5070419;28;20188;-63
2022/08/01 08:43:11;;;;;;;3.63;1.83;;;;;;;32.68;25.12;99065.09;5062471;28;20231;-66
2022/08/01 08:45:39;;;;;;;5.77;1.60;;;;;;;32.54;25.81;99052.91;5050149;28;20662;-66
2022/08/01 08:48:07;;;;;;;4.60;1.80;;;;;;;32.26;25.71;99052.84;5050467;28;20201;-65
2022/08/01 08:50:34;;;;;;;1.60;1.50;;;;;;;32.61;26.10;99042.06;5056589;28;20249;-66
2022/08/01 08:53:02;;;;;;;7.40;1.83;;;;;;;32.40;25.85;99047.78;5077516;28;20200;-68
2022/08/01 08:55:29;;;;;;;7.03;1.77;;;;;;;32.45;26.17;99039.28;5069131;28;20261;-68
2022/08/01 08:57:59;;;;;;;11.40;1.93;;;;;;;32.39;25.81;99040.69;5070194;28;20253;-67
2022/08/01 09:00:26;;;;;;;1.70;1.50;;;;;;;32.67;25.88;99041.47;5070288;28;20196;-68
2022/08/01 09:02:55;;;;;;;11.33;2.77;;;;;;;32.56;25.86;99034.06;5072402;28;20644;-68
2022/08/01 09:05:26;;;;;;;2.53;1.60;;;;;;;32.79;25.78;99033.13;5074472;28;20195;-69
2022/08/01 09:07:52;;;;;;;5.57;1.40;;;;;;;32.44;25.89;99043.19;5072834;28;20227;-68
2022/08/01 09:10:20;;;;;;;2.90;1.40;;;;;;;32.43;25.76;99036.09;5071923;28;20638;-67
2022/08/01 09:13:10;;;;;;;1.63;1.53;;;;;;;32.56;26.14;99045.06;5071849;28;20660;-70
2022/08/01 09:15:41;;;;;;;2.73;1.50;;;;;;;33.04;26.75;99039.34;5072596;28;20271;-68
2022/08/01 09:18:26;;;;;;;2.00;1.40;;;;;;;32.87;25.74;99025.91;5073138;28;20196;-71
2022/08/01 09:21:07;;;;;;;5.83;1.63;;;;;;;32.77;26.28;99021.69;5073026;28;20271;-70
2022/08/01 09:23:35;;;;;;;17.07;2.43;;;;;;;32.94;26.03;99010.38;5073397;28;20269;-70
2022/08/01 09:26:02;;;;;;;5.77;1.60;;;;;;;32.62;25.90;99014.22;5074158;28;20283;-69
2022/08/01 09:28:30;;;;;;;6.20;1.80;;;;;;;32.54;26.88;99025.38;5073291;28;20196;-71
2022/08/01 09:30:57;;;;;;;4.57;1.57;;;;;;;32.12;26.54;99016.69;5074435;28;20590;-69
2022/08/01 09:33:26;;;;;;;8.70;1.80;;;;;;;32.00;26.89;98997.50;5072423;28;20200;-70
2022/08/01 09:35:55;;;;;;;4.27;1.47;;;;;;;32.21;26.73;99016.56;5073411;28;20237;-70
2022/08/01 09:38:24;;;;;;;1.90;1.53;;;;;;;32.27;26.68;99015.97;5072531;28;20279;-69
2022/08/01 09:40:53;;;;;;;1.60;1.50;;;;;;;32.50;26.85;99014.28;5073649;28;20340;-70
2022/08/01 09:43:22;;;;;;;6.07;1.60;;;;;;;32.59;26.96;99016.88;5072733;28;20938;-70
2022/08/01 09:45:50;;;;;;;1.40;1.40;;;;;;;32.26;26.66;99008.84;5072528;28;20196;-70
2022/08/01 09:48:17;;;;;;;1.63;1.30;;;;;;;32.18;27.70;98998.78;5074283;28;20203;-69
2022/08/01 09:50:47;;;;;;;3.87;1.40;;;;;;;32.46;26.73;99001.59;5073308;28;20257;-69
2022/08/01 09:53:15;;;;;;;2.57;1.33;;;;;;;32.26;27.06;98997.84;5073000;28;20202;-70
2022/08/01 09:55:42;;;;;;;4.30;1.47;;;;;;;31.96;27.92;98987.53;5073519;28;20664;-70
2022/08/01 09:58:11;;;;;;;6.53;1.87;;;;;;;32.09;27.89;99003.66;5072380;28;20235;-70
2022/08/01 10:00:39;;;;;;;3.50;1.63;;;;;;;32.21;27.82;99000.84;5072387;28;20250;-70
2022/08/01 10:03:21;;;;;;;3.13;1.40;;;;;;;32.26;27.61;98997.84;5072422;28;20219;-69
2022/08/01 10:05:50;;;;;;;1.70;1.60;;;;;;;32.53;27.10;98988.81;5072297;28;20180;-70
2022/08/01 10:08:17;;;;;;;1.50;1.40;;;;;;;32.51;27.46;98993.84;5070665;28;20204;-70
2022/08/01 10:11:04;;;;;;;5.87;1.50;;;;;;;32.36;27.30;98997.38;5072430;28;20223;-70
2022/08/01 10:13:31;;;;;;;1.57;1.40;;;;;;;32.35;27.31;98979.31;5070094;28;20199;-70
2022/08/01 10:15:58;;;;;;;2.03;1.23;;;;;;;32.46;27.04;98985.88;5072702;28;20184;-70
2022/08/01 10:18:26;;;;;;;4.07;1.50;;;;;;;32.51;27.55;98977.34;5071422;28;20266;-70
2022/08/01 10:20:55;;;;;;;3.67;1.37;;;;;;;32.94;27.32;98982.84;5072225;28;20305;-70
2022/08/01 10:23:23;;;;;;;4.67;1.40;;;;;;;33.16;26.88;98982.22;5071839;28;20224;-70
2022/08/01 10:25:51;;;;;;;4.63;1.73;;;;;;;33.13;26.91;98982.94;5072153;28;20681;-68
2022/08/01 10:28:20;;;;;;;2.27;1.63;;;;;;;33.10;26.70;98983.66;5072099;28;20192;-69
2022/08/01 10:30:48;;;;;;;2.33;1.10;;;;;;;33.06;26.75;98977.25;5072566;28;20200;-69
2022/08/01 10:33:16;;;;;;;5.70;1.27;;;;;;;32.83;26.94;98984.53;5072897;28;20253;-70
2022/08/01 10:35:46;;;;;;;1.30;1.20;;;;;;;32.95;27.10;98970.69;5073389;28;20192;-70
2022/08/01 10:38:15;;;;;;;2.70;1.20;;;;;;;33.14;27.00;98978.22;5073506;28;20196;-70
2022/08/01 10:40:43;;;;;;;1.63;1.50;;;;;;;33.24;26.45;98984.00;5072685;28;20720;-71
2022/08/01 10:43:10;;;;;;;2.80;1.20;;;;;;;33.19;26.47;98981.50;5072883;28;20220;-70
2022/08/01 10:45:37;;;;;;;5.60;1.33;;;;;;;32.51;27.08;98993.84;5071399;28;20238;-68
2022/08/01 10:48:10;;;;;;;3.73;1.37;;;;;;;32.46;27.36;98991.38;5071716;28;20237;-68
2022/08/01 10:50:42;;;;;;;1.33;1.33;;;;;;;32.32;27.64;98980.00;5071201;28;20184;-69
2022/08/01 10:53:16;;;;;;;7.23;1.50;;;;;;;32.74;27.42;98991.31;5069652;28;20245;-70
2022/08/01 10:55:50;;;;;;;2.30;1.00;;;;;;;32.98;27.07;98983.75;5071591;28;20180;-68
2022/08/01 10:58:22;;;;;;;1.30;1.30;;;;;;;33.18;26.66;98968.91;5070361;28;20231;-67
2022/08/01 11:00:49;;;;;;;3.65;1.70;;;;;;;33.28;27.09;98979.38;5071188;28;21008;-68
2022/08/01 11:03:16;;;;;;;1.33;1.23;;;;;;;33.63;26.77;98986.91;5071536;28;20281;-69
2022/08/01 11:05:45;;;;;;;1.90;1.10;;;;;;;33.50;26.29;98982.63;5070769;28;20249;-70
2022/08/01 11:08:25;;;;;;;3.40;1.40;;;;;;;33.30;26.95;98977.06;5054297;28;20197;-68
2022/08/01 11:11:00;;;;;;;2.15;1.13;;;;;;;33.76;26.29;98982.84;5050506;28;20591;-69
2022/08/01 11:14:00;;;;;;;1.60;1.50;;;;;;;34.09;26.01;98983.19;5065598;28;20191;-69
2022/08/01 11:16:28;;;;;;;3.53;1.52;;;;;;;33.87;25.53;98973.69;5063860;28;20200;-68
2022/08/01 11:18:55;;;;;;;2.58;1.40;;;;;;;33.61;27.43;98964.41;5071308;28;20199;-66
2022/08/01 11:21:23;;;;;;;2.15;1.17;;;;;;;33.54;26.45;98964.22;5071290;28;20203;-65
2022/08/01 11:23:53;;;;;;;1.63;1.30;;;;;;;32.88;27.58;98967.78;5071095;28;20836;-65
2022/08/01 11:26:21;;;;;;;1.70;1.60;;;;;;;32.97;27.34;98962.06;5071266;28;20192;-65
2022/08/01 11:29:13;;;;;;;1.30;1.20;;;;;;;32.96;26.21;98961.28;5070897;28;20588;-65
2022/08/01 11:31:40;;;;;;;1.43;1.33;;;;;;;33.16;27.46;98970.44;5070313;28;20192;-68
2022/08/01 11:34:07;;;;;;;2.75;1.50;;;;;;;33.52;26.82;98966.56;5070352;28;20192;-65
2022/08/01 11:36:34;;;;;;;2.13;1.45;;;;;;;33.81;25.96;98961.31;5070148;28;20192;-66
2022/08/01 11:39:18;;;;;;;9.35;1.58;;;;;;;34.07;25.84;98957.94;5070365;28;20192;-66
2022/08/01 11:41:46;;;;;;;6.13;1.65;;;;;;;34.06;26.29;98961.88;5070340;28;20718;-65
2022/08/01 11:44:16;;;;;;;3.22;1.50;;;;;;;33.94;26.42;98959.25;5071517;28;20227;-64